Карточка аэропорта UOOO

Внимание!
Информация на этой странице в стадии наполнения.
Если вы не увидели какой-то информации, или заметили неточность - пожалуйста сообщите нам!
Спасибо!
Команда RU-STAFF
Название аэропортаАлыкель
Название аэропорта (англ.)Alykel
Превышение574 ft. (175 m.)
Координаты69°19.02', 87°19.02'
Высота перехода1200m
Эшелон переходаQFE>744:FL60;744>QFE>717:FL70;717>QFE:FL80
Коды ответчика5401-5427
Зона ОрВДКрасноярск РПИ (UNKL)
Данные METARUOOO 181700Z 13005MPS 6000 -SN SCT011 M00/M00 Q1000 R19/590538 NOSIG RMK QFE734/0979
Проноз погоды (TAF)UOOO 181356Z 1815/1915 13003G08MPS 4000 -SN BR BKN016 TEMPO 1815/1821 1000 -SN BR BKN011 BECMG 1821/1823 18005G12MPS TEMPO 1823/1904 0500 -SN FZFG BECMG 1904/1907 23003G08MPS 1000 -SN BR TEMPO 1907/1915 0300 FZFG VV002
NOTAMshow/hide NOTAM
AWOS   TABLE

Информация о ВПП

ВПП Длина ВПП (м.) Покрытие Курс ВПП Частота ILS
013430Бетон13109.5
193430Бетон193110.3

Диспетчерские позиции

Позывной Наименование органа УВД Частота
UOOO_GNDНорильск - Руление121.700
UOOO_R_APPНорильск - Круг120.400
UOOO_TWRНорильск - Старт118.300



Спутниковое изображение